createdAt,value
2016-05-17T11:15:41.993Z,9004
2016-05-17T11:16:44.480Z,7324
2016-05-17T11:17:44.795Z,5184
2016-05-17T11:18:44.408Z,5028
2016-05-17T11:19:44.161Z,5436
2016-05-17T11:20:44.304Z,5804
2016-05-17T11:21:44.290Z,6612
2016-05-17T11:22:44.105Z,6896
2016-05-17T11:23:43.922Z,6472
2016-05-17T11:24:44.221Z,7200
2016-05-17T11:25:43.880Z,8616
2016-05-17T11:26:44.164Z,10616
2016-05-17T11:27:44.151Z,12236
2016-05-17T11:28:44.122Z,12520
2016-05-17T11:29:44.109Z,12720
2016-05-17T11:30:43.940Z,12324
2016-05-17T11:31:43.912Z,11736
2016-05-17T11:32:44.055Z,10788
2016-05-17T11:33:44.026Z,11048
2016-05-17T11:34:43.998Z,12132
2016-05-17T11:35:43.829Z,13864
2016-05-17T11:36:45.018Z,14912
2016-05-17T11:37:44.427Z,15320
2016-05-17T11:38:43.931Z,16032
2016-05-17T11:39:43.901Z,16916
2016-05-17T11:40:43.889Z,17540
2016-05-17T11:41:43.704Z,16564
2016-05-17T11:42:43.862Z,14932
2016-05-17T11:43:43.834Z,14200
2016-05-17T11:44:43.664Z,14132
2016-05-17T11:45:43.792Z,14600
2016-05-17T11:46:43.780Z,14448
2016-05-17T11:47:43.767Z,13500
2016-05-17T11:48:43.425Z,12208
2016-05-17T11:49:43.725Z,11104
2016-05-17T11:50:43.697Z,10392
2016-05-17T11:51:44.199Z,9796
2016-05-17T11:52:43.686Z,9020
2016-05-17T11:53:43.658Z,9072
2016-05-17T11:54:43.488Z,8660
2016-05-17T11:55:43.476Z,9204
2016-05-17T11:56:43.604Z,9296
2016-05-17T11:57:43.262Z,9200
2016-05-17T11:58:43.406Z,9560
2016-05-17T11:59:43.581Z,8588
2016-05-17T12:00:43.364Z,9256
2016-05-17T12:01:43.507Z,8900
2016-05-17T12:02:43.495Z,8612
2016-05-17T12:03:43.326Z,9776
2016-05-17T12:04:43.468Z,9520
2016-05-17T12:05:43.457Z,9420
2016-05-17T12:06:43.740Z,10224
2016-05-17T12:07:43.414Z,10684
2016-05-17T12:08:43.229Z,10888
2016-05-17T12:09:43.201Z,11308
2016-05-17T12:10:43.359Z,11524
2016-05-17T12:11:43.347Z,11864
2016-05-17T12:12:43.162Z,11268
2016-05-17T12:13:43.306Z,10696
2016-05-17T12:14:43.277Z,10616
2016-05-17T12:15:43.280Z,10548
2016-05-17T12:16:43.251Z,10372
2016-05-17T12:17:43.222Z,10748
2016-05-17T12:18:43.225Z,11192
2016-05-17T12:19:43.041Z,11076
2016-05-17T12:20:43.200Z,11608
2016-05-17T12:21:43.108Z,12044
2016-05-17T12:22:43.142Z,12616
2016-05-17T12:23:42.972Z,12888
2016-05-17T12:24:42.944Z,13172
2016-05-17T12:25:43.088Z,13396
2016-05-17T12:26:43.075Z,12592
2016-05-17T12:27:43.046Z,11784
2016-05-17T12:28:42.877Z,11176
2016-05-17T12:29:43.036Z,10992
2016-05-17T12:30:43.008Z,10944
2016-05-17T12:31:42.823Z,12076
2016-05-17T12:32:42.810Z,13340
2016-05-17T12:33:42.954Z,14316
2016-05-17T12:34:42.784Z,14276
2016-05-17T12:35:42.912Z,14184
2016-05-17T12:36:43.148Z,13516
2016-05-17T12:37:42.885Z,13116
2016-05-17T12:38:42.857Z,13240
2016-05-17T12:39:42.845Z,15932
2016-05-17T12:40:42.847Z,17908
2016-05-17T12:41:42.678Z,18880
2016-05-17T12:42:42.790Z,19584
2016-05-17T12:43:42.465Z,20192
2016-05-17T12:44:42.779Z,20224
2016-05-17T12:45:42.767Z,20352
2016-05-17T12:46:42.739Z,19744
2016-05-17T12:47:42.709Z,17792
2016-05-17T12:48:42.696Z,18144
2016-05-17T12:49:42.683Z,19296
2016-05-17T12:50:42.670Z,19104
2016-05-17T12:51:42.877Z,17580
2016-05-17T12:52:43.269Z,16340
2016-05-17T12:53:42.616Z,15144
2016-05-17T12:54:42.447Z,15124
2016-05-17T12:55:42.606Z,14908
2016-05-17T12:56:42.422Z,15120
2016-05-17T12:57:42.408Z,17180
2016-05-17T12:58:42.535Z,18368
2016-05-17T12:59:42.538Z,18068
2016-05-17T13:00:42.526Z,18528
2016-05-17T13:01:42.497Z,17680
2016-05-17T13:02:42.485Z,16772
2016-05-17T13:03:42.471Z,15480
2016-05-17T13:04:42.458Z,14268
2016-05-17T13:05:42.446Z,13592
2016-05-17T13:06:42.417Z,11128
2016-05-17T13:07:42.279Z,10912
2016-05-17T13:08:42.390Z,13480
2016-05-17T13:09:42.378Z,13124
2016-05-17T13:10:42.365Z,12144
2016-05-17T13:11:42.337Z,11152
2016-05-17T13:12:42.339Z,9800
2016-05-17T13:13:42.326Z,9324
2016-05-17T13:14:42.314Z,8784
2016-05-17T13:15:42.145Z,8000
2016-05-17T13:16:42.116Z,6816
2016-05-17T13:17:42.259Z,5824
2016-05-17T13:18:42.245Z,5632
2016-05-17T13:19:42.248Z,6136
2016-05-17T13:20:42.220Z,7148
2016-05-17T13:21:42.192Z,8092
2016-05-17T13:22:41.897Z,8200
2016-05-17T13:23:42.166Z,7728
2016-05-17T13:24:42.152Z,7012
2016-05-17T13:25:41.984Z,6036
2016-05-17T13:26:42.127Z,5644
2016-05-17T13:27:42.099Z,5300
2016-05-17T13:28:42.085Z,5124
2016-05-17T13:29:41.916Z,4924
2016-05-17T13:30:42.059Z,4680
2016-05-17T13:31:41.905Z,4292
2016-05-17T13:32:42.018Z,3916
2016-05-17T13:33:41.849Z,3688
2016-05-17T13:34:41.992Z,3556
2016-05-17T13:35:41.995Z,3460
2016-05-17T13:36:41.966Z,3676
2016-05-17T13:37:41.876Z,4504
2016-05-17T13:38:41.612Z,5584
2016-05-17T13:39:41.912Z,6016
2016-05-17T13:40:41.884Z,6000
2016-05-17T13:41:41.715Z,5764
2016-05-17T13:42:41.857Z,5532
2016-05-17T13:43:41.829Z,5512
2016-05-17T13:44:41.660Z,5768
2016-05-17T13:45:41.334Z,6132
2016-05-17T13:46:41.775Z,6280
2016-05-17T13:47:41.778Z,6360
2016-05-17T13:48:41.749Z,6708
2016-05-17T13:49:41.736Z,7432
2016-05-17T13:50:41.707Z,7952
2016-05-17T13:51:41.553Z,7956
2016-05-17T13:52:42.181Z,8016
2016-05-17T13:53:41.356Z,8400
2016-05-17T13:54:41.484Z,9376
2016-05-17T13:55:41.470Z,10292
2016-05-17T13:56:41.302Z,10928
2016-05-17T13:57:41.600Z,11592
2016-05-17T13:58:41.417Z,12192
2016-05-17T13:59:41.403Z,12972
2016-05-17T14:00:41.562Z,13836
2016-05-17T14:01:41.518Z,14064
2016-05-17T14:02:41.349Z,13940
2016-05-17T14:03:41.492Z,14236
2016-05-17T14:04:41.479Z,14760
2016-05-17T14:05:41.435Z,14628
2016-05-17T14:06:41.438Z,13976
2016-05-17T14:07:41.846Z,13508
2016-05-17T14:08:41.396Z,13348
2016-05-17T14:09:41.415Z,13076
2016-05-17T14:10:41.198Z,12048
2016-05-17T14:11:41.342Z,10604
2016-05-17T14:12:41.344Z,9772
2016-05-17T14:13:41.315Z,9288
2016-05-17T14:14:41.303Z,9308
2016-05-17T14:15:41.008Z,9236
2016-05-17T14:16:41.191Z,9052
2016-05-17T14:17:41.360Z,8676
2016-05-17T14:18:41.389Z,8492
2016-05-17T14:19:41.261Z,8548
2016-05-17T14:20:41.253Z,8576
2016-05-17T14:21:41.412Z,8676
2016-05-17T14:22:41.430Z,9024
2016-05-17T14:23:41.417Z,8732
2016-05-17T14:24:41.246Z,8408
2016-05-17T14:25:41.414Z,8348
2016-05-17T14:26:41.234Z,8736
2016-05-17T14:27:41.226Z,8616
2016-05-17T14:28:41.359Z,8376
2016-05-17T14:29:41.336Z,8784
2016-05-17T14:30:41.186Z,9208
2016-05-17T14:31:41.175Z,9272
2016-05-17T14:32:41.304Z,10172
2016-05-17T14:33:41.152Z,11208
2016-05-17T14:34:41.282Z,12156
2016-05-17T14:35:41.255Z,11984
2016-05-17T14:36:41.257Z,11556
2016-05-17T14:37:40.964Z,11888
2016-05-17T14:38:41.217Z,11980
2016-05-17T14:39:41.189Z,10788
2016-05-17T14:40:41.176Z,8684
2016-05-17T14:41:41.007Z,6892
2016-05-17T14:42:40.995Z,5548
2016-05-17T14:43:41.124Z,4532
2016-05-17T14:44:41.126Z,3832
2016-05-17T14:45:41.097Z,3536
2016-05-17T14:46:41.085Z,3784
2016-05-17T14:47:41.072Z,4056
2016-05-17T14:48:41.043Z,4212
2016-05-17T14:49:40.718Z,4420
2016-05-17T14:50:40.861Z,4856
2016-05-17T14:51:40.833Z,5136
2016-05-17T14:52:40.835Z,5260
2016-05-17T14:53:40.962Z,5504
2016-05-17T14:54:40.949Z,6056
2016-05-17T14:55:40.921Z,6692
2016-05-17T14:56:40.909Z,7380
2016-05-17T14:57:40.879Z,8056
2016-05-17T14:58:40.929Z,8824
2016-05-17T14:59:40.713Z,9676
2016-05-17T15:00:40.684Z,10328
2016-05-17T15:01:40.812Z,10768
2016-05-17T15:02:40.815Z,11072
2016-05-17T15:03:40.474Z,11388
2016-05-17T15:04:40.773Z,11816
2016-05-17T15:05:40.745Z,12240
2016-05-17T15:06:40.576Z,12248
2016-05-17T15:07:40.734Z,11756
2016-05-17T15:08:40.706Z,11464
2016-05-17T15:09:40.678Z,11476
2016-05-17T15:10:40.665Z,11552
2016-05-17T15:11:40.636Z,11588
2016-05-17T15:12:40.467Z,11572
2016-05-17T15:13:40.610Z,11476
2016-05-17T15:14:40.598Z,11412
2016-05-17T15:15:40.585Z,11384
2016-05-17T15:16:40.555Z,11444
2016-05-17T15:17:40.543Z,11584
2016-05-17T15:18:40.530Z,11564
2016-05-17T15:19:40.501Z,11420
2016-05-17T15:20:40.332Z,11228
2016-05-17T15:21:40.476Z,11192
2016-05-17T15:22:40.290Z,11264
2016-05-17T15:23:40.434Z,11024
2016-05-17T15:24:40.421Z,10360
2016-05-17T15:25:40.423Z,9816
2016-05-17T15:26:40.395Z,9776
2016-05-17T15:27:40.367Z,9856
2016-05-17T15:28:40.354Z,9804
2016-05-17T15:29:40.184Z,9768
2016-05-17T15:30:40.328Z,9940
2016-05-17T15:31:40.034Z,10144
2016-05-17T15:32:40.131Z,10308
2016-05-17T15:33:40.273Z,10500
2016-05-17T15:34:40.120Z,10500
2016-05-17T15:35:40.264Z,10296
2016-05-17T15:36:40.220Z,10080
2016-05-17T15:37:40.347Z,9904
2016-05-17T15:38:40.037Z,9568
2016-05-17T15:39:40.181Z,9160
2016-05-17T15:40:39.855Z,8924
2016-05-17T15:41:40.138Z,8996
2016-05-17T15:42:40.126Z,9376
2016-05-17T15:43:39.957Z,9512
2016-05-17T15:44:40.100Z,9388
2016-05-17T15:45:39.774Z,9184
2016-05-17T15:46:40.058Z,8928
2016-05-17T15:47:39.889Z,8636
2016-05-17T15:48:39.877Z,8516
2016-05-17T15:49:40.020Z,8548
2016-05-17T15:50:39.835Z,8736
2016-05-17T15:51:39.977Z,8728
2016-05-17T15:52:39.949Z,8584
2016-05-17T15:53:39.937Z,8480
2016-05-17T15:54:39.798Z,8264
2016-05-17T15:55:39.910Z,7960
2016-05-17T15:56:39.882Z,7672
2016-05-17T15:57:39.869Z,7420
2016-05-17T15:58:39.856Z,7364
2016-05-17T15:59:39.687Z,7684
2016-05-17T16:00:39.831Z,7960
2016-05-17T16:01:39.801Z,8028
2016-05-17T16:02:39.789Z,7776
2016-05-17T16:03:39.776Z,7528
2016-05-17T16:04:39.762Z,7412
2016-05-17T16:05:39.575Z,7200
2016-05-17T16:06:39.719Z,6984
2016-05-17T16:07:39.815Z,6760
2016-05-17T16:08:39.693Z,6540
2016-05-17T16:09:39.524Z,6548
2016-05-17T16:10:39.667Z,6548
2016-05-17T16:11:39.467Z,6472
2016-05-17T16:12:39.453Z,6424
2016-05-17T16:13:39.456Z,6360
2016-05-17T16:14:39.428Z,6528
2016-05-17T16:15:39.556Z,6828
2016-05-17T16:16:39.402Z,7084
2016-05-17T16:17:39.545Z,7328
2016-05-17T16:18:39.517Z,7528
2016-05-17T16:19:39.348Z,7576
2016-05-17T16:20:40.916Z,7564
2016-05-17T16:21:39.463Z,7768
2016-05-17T16:22:39.763Z,7928
2016-05-17T16:23:39.436Z,7848
2016-05-17T16:24:39.424Z,7888
2016-05-17T16:25:39.255Z,7976
2016-05-17T16:26:39.227Z,7924
2016-05-17T16:27:39.368Z,7720
2016-05-17T16:28:39.200Z,7480
2016-05-17T16:29:39.343Z,7260
2016-05-17T16:30:39.299Z,7024
2016-05-17T16:31:39.287Z,7056
2016-05-17T16:32:39.274Z,7068
2016-05-17T16:33:39.259Z,7000
2016-05-17T16:34:39.231Z,6976
2016-05-17T16:35:39.235Z,6804
2016-05-17T16:36:39.206Z,6612
2016-05-17T16:37:38.896Z,6404
2016-05-17T16:38:39.164Z,6128
2016-05-17T16:39:39.151Z,5896
2016-05-17T16:40:38.982Z,5652
2016-05-17T16:41:39.109Z,5572
2016-05-17T16:42:39.097Z,5660
2016-05-17T16:43:39.084Z,5984
2016-05-17T16:44:39.072Z,6228
2016-05-17T16:45:39.058Z,6736
2016-05-17T16:46:39.030Z,7020
2016-05-17T16:47:39.017Z,6988
2016-05-17T16:48:39.004Z,6444
2016-05-17T16:49:38.991Z,6012
2016-05-17T16:50:38.805Z,5260
2016-05-17T16:51:38.949Z,4568
2016-05-17T16:52:38.889Z,4280
2016-05-17T16:53:38.908Z,4164
2016-05-17T16:54:38.911Z,4040
2016-05-17T16:55:38.882Z,3944
2016-05-17T16:56:38.557Z,3904
2016-05-17T16:57:38.841Z,4076
2016-05-17T16:58:38.828Z,4332
2016-05-17T16:59:38.799Z,4404
2016-05-17T17:00:38.785Z,4460
2016-05-17T17:01:38.773Z,4532
2016-05-17T17:02:38.760Z,4648
2016-05-17T17:03:38.732Z,4828
2016-05-17T17:04:38.562Z,4888
2016-05-17T17:05:38.549Z,4820
2016-05-17T17:06:38.521Z,4856
2016-05-17T17:07:38.665Z,5012
2016-05-17T17:08:38.652Z,5096
2016-05-17T17:09:38.466Z,5148
2016-05-17T17:10:38.609Z,5136
2016-05-17T17:11:38.581Z,5224
2016-05-17T17:12:38.428Z,5336
2016-05-17T17:13:38.556Z,5516
2016-05-17T17:14:38.528Z,5444
2016-05-17T17:15:38.514Z,5484
2016-05-17T17:16:38.345Z,5360
2016-05-17T17:17:38.489Z,4864
2016-05-17T17:18:38.460Z,4172
2016-05-17T17:19:38.447Z,3664
2016-05-17T17:20:38.277Z,3364
2016-05-17T17:21:38.249Z,3164
2016-05-17T17:22:38.408Z,3156
2016-05-17T17:23:38.380Z,3412
2016-05-17T17:24:38.210Z,3896
2016-05-17T17:25:38.338Z,4236
2016-05-17T17:26:38.310Z,4268
2016-05-17T17:27:38.297Z,4020
2016-05-17T17:28:38.143Z,3692
2016-05-17T17:29:38.271Z,3580
2016-05-17T17:30:38.085Z,3560
2016-05-17T17:31:38.229Z,3560
2016-05-17T17:32:38.216Z,3692
2016-05-17T17:33:38.204Z,3784
2016-05-17T17:34:38.174Z,3868
2016-05-17T17:35:38.005Z,3988
2016-05-17T17:36:38.133Z,4264
2016-05-17T17:37:38.276Z,4332
2016-05-17T17:38:38.138Z,4484
2016-05-17T17:39:38.078Z,4576
2016-05-17T17:40:37.909Z,4636
2016-05-17T17:41:38.037Z,4652
2016-05-17T17:42:37.868Z,4580
2016-05-17T17:43:38.011Z,4444
2016-05-17T17:44:37.998Z,4300
2016-05-17T17:45:37.985Z,3976
2016-05-17T17:46:37.941Z,3628
2016-05-17T17:47:37.959Z,3268
2016-05-17T17:48:37.759Z,3024
2016-05-17T17:49:37.887Z,2860
2016-05-17T17:50:37.874Z,2764
2016-05-17T17:51:37.720Z,2720
2016-05-17T17:52:37.832Z,2760
2016-05-17T17:53:37.835Z,2832
2016-05-17T17:54:37.791Z,2840
2016-05-17T17:55:37.777Z,2812
2016-05-17T17:56:37.609Z,2840
2016-05-17T17:57:37.768Z,2892
2016-05-17T17:58:37.738Z,2924
2016-05-17T17:59:37.711Z,2928
2016-05-17T18:00:37.697Z,2912
2016-05-17T18:01:37.528Z,2896
2016-05-17T18:02:37.360Z,2832
2016-05-17T18:03:37.627Z,2760
2016-05-17T18:04:37.615Z,2664
2016-05-17T18:05:37.446Z,2664
2016-05-17T18:06:37.432Z,2640
2016-05-17T18:07:37.576Z,2584
2016-05-17T18:08:37.563Z,2484
2016-05-17T18:09:37.534Z,2368
2016-05-17T18:10:37.349Z,2280
2016-05-17T18:11:37.476Z,2224
2016-05-17T18:12:37.480Z,2184
2016-05-17T18:13:37.451Z,2124
2016-05-17T18:14:37.422Z,2068
2016-05-17T18:15:37.442Z,2008
2016-05-17T18:16:37.397Z,1964
2016-05-17T18:17:37.367Z,1916
2016-05-17T18:18:37.356Z,1868
2016-05-17T18:19:37.186Z,1832
2016-05-17T18:20:37.330Z,1800
2016-05-17T18:21:37.300Z,1764
2016-05-17T18:22:37.819Z,1720
2016-05-17T18:23:37.103Z,1676
2016-05-17T18:24:37.105Z,1632
2016-05-17T18:25:37.218Z,1592
2016-05-17T18:26:37.049Z,1552
2016-05-17T18:27:37.036Z,1528
2016-05-17T18:28:37.180Z,1500
2016-05-17T18:29:36.994Z,1468
2016-05-17T18:30:36.982Z,1436
2016-05-17T18:31:36.953Z,1408
2016-05-17T18:32:37.080Z,1380
2016-05-17T18:33:36.926Z,1340
2016-05-17T18:34:37.055Z,1296
2016-05-17T18:35:37.026Z,1260
2016-05-17T18:36:37.013Z,1228
2016-05-17T18:37:37.000Z,1200
2016-05-17T18:38:37.003Z,1176
2016-05-17T18:39:36.959Z,1156
2016-05-17T18:40:36.946Z,1132
2016-05-17T18:41:36.902Z,1108
2016-05-17T18:42:36.904Z,1084
2016-05-17T18:43:36.892Z,1048
2016-05-17T18:44:36.862Z,1024
2016-05-17T18:45:36.834Z,1004
2016-05-17T18:46:36.665Z,976
2016-05-17T18:47:36.793Z,944
2016-05-17T18:48:36.764Z,912
2016-05-17T18:49:37.407Z,880
2016-05-17T18:50:36.441Z,848
2016-05-17T18:51:36.709Z,816
2016-05-17T18:52:36.556Z,788
2016-05-17T18:53:36.684Z,756
2016-05-17T18:54:52.767Z,728
2016-05-17T18:55:36.642Z,704
2016-05-17T18:56:36.629Z,680
2016-05-17T18:57:44.116Z,648
2016-05-17T18:58:41.932Z,628
2016-05-17T18:59:36.560Z,604
2016-05-17T19:00:36.531Z,576
2016-05-17T19:01:36.519Z,552
2016-05-17T19:02:36.505Z,524
2016-05-17T19:03:36.476Z,504
2016-05-17T19:04:36.463Z,476
2016-05-17T19:05:36.294Z,452
2016-05-17T19:06:36.437Z,432
2016-05-17T19:07:36.268Z,404
2016-05-17T19:08:36.380Z,380
2016-05-17T19:09:36.368Z,360
2016-05-17T19:10:36.199Z,348
2016-05-17T19:11:36.185Z,320
2016-05-17T19:12:36.298Z,300
2016-05-17T19:13:36.268Z,280
2016-05-17T19:14:36.256Z,260
2016-05-17T19:15:36.087Z,244
2016-05-17T19:16:36.231Z,228
2016-05-17T19:17:36.061Z,216
2016-05-17T19:18:36.016Z,196
2016-05-17T19:19:36.003Z,188
2016-05-17T19:20:36.147Z,172
2016-05-17T19:21:36.119Z,160
2016-05-17T19:22:35.964Z,148
2016-05-17T19:23:36.109Z,136
2016-05-17T19:24:36.064Z,128
2016-05-17T19:25:36.051Z,112
2016-05-17T19:26:36.022Z,104
2016-05-17T19:27:35.994Z,92
2016-05-17T19:28:35.981Z,84
2016-05-17T19:29:35.952Z,72
2016-05-17T19:30:35.939Z,64
2016-05-17T19:31:35.771Z,60
2016-05-17T19:32:35.930Z,52
2016-05-17T19:33:35.885Z,48
2016-05-17T19:34:35.857Z,40
2016-05-17T19:35:35.827Z,32
2016-05-17T19:36:35.799Z,24
2016-05-17T19:37:35.802Z,16
2016-05-17T19:38:35.774Z,12
2016-05-17T19:39:35.746Z,12
2016-05-17T19:40:35.748Z,8
2016-05-17T19:41:35.735Z,8
2016-05-17T19:42:35.675Z,8
2016-05-17T19:43:35.662Z,4
2016-05-17T19:44:35.665Z,4
2016-05-17T19:45:35.637Z,4
2016-05-17T19:46:35.607Z,4
2016-05-17T19:47:35.423Z,0
2016-05-17T19:48:35.581Z,4
2016-05-17T19:49:35.553Z,4
2016-05-17T19:50:35.525Z,4
2016-05-17T19:51:35.496Z,0
2016-05-17T19:52:35.077Z,0
2016-05-17T19:53:35.892Z,4
2016-05-17T19:54:35.458Z,4
2016-05-17T19:55:35.428Z,4
2016-05-17T19:56:35.416Z,4
2016-05-17T19:57:35.247Z,4
2016-05-17T19:58:35.374Z,4
2016-05-17T19:59:35.347Z,4
2016-05-17T20:00:35.333Z,4
2016-05-17T20:01:35.304Z,0
2016-05-17T20:02:35.292Z,0
2016-05-17T20:03:35.263Z,0
2016-05-17T20:04:35.218Z,0
2016-05-17T20:05:35.065Z,0
2016-05-17T20:06:35.177Z,0
2016-05-17T20:07:35.399Z,0
2016-05-17T20:08:35.151Z,0
2016-05-17T20:09:34.982Z,0
2016-05-17T20:10:35.141Z,0
2016-05-17T20:11:35.082Z,0
2016-05-17T20:12:35.084Z,0
2016-05-17T20:13:35.040Z,0
2016-05-17T20:14:35.043Z,0
2016-05-17T20:15:35.014Z,0
2016-05-17T20:16:34.828Z,0
2016-05-17T20:17:34.957Z,0
2016-05-17T20:18:34.943Z,0
2016-05-17T20:19:34.946Z,0
2016-05-17T20:20:34.902Z,0
2016-05-17T20:21:34.889Z,0
2016-05-17T20:22:35.533Z,0
2016-05-17T20:23:34.848Z,0
2016-05-17T20:24:36.070Z,0
2016-05-17T20:25:34.651Z,0
2016-05-17T20:26:34.794Z,0
2016-05-17T20:27:34.764Z,0
2016-05-17T20:28:34.736Z,0
2016-05-17T20:29:34.567Z,0
2016-05-17T20:30:34.695Z,0
2016-05-17T20:31:34.510Z,0
2016-05-17T20:32:34.497Z,0
2016-05-17T20:33:34.468Z,0
2016-05-17T20:34:34.627Z,0
2016-05-17T20:35:34.443Z,0
2016-05-17T20:36:34.414Z,0
2016-05-17T20:37:34.526Z,0
2016-05-17T20:38:34.372Z,0
2016-05-17T20:39:34.500Z,0
2016-05-17T20:40:34.487Z,0
2016-05-17T20:41:34.459Z,0
2016-05-17T20:42:34.446Z,0
2016-05-17T20:43:34.417Z,0
2016-05-17T20:44:34.310Z,0
2016-05-17T20:45:34.391Z,0
2016-05-17T20:46:34.363Z,0
2016-05-17T20:47:34.350Z,0
2016-05-17T20:48:34.306Z,0
2016-05-17T20:49:34.292Z,0
2016-05-17T20:50:34.279Z,0
2016-05-17T20:51:34.095Z,0
2016-05-17T20:52:34.660Z,0
2016-05-17T20:53:34.070Z,0
2016-05-17T20:54:34.198Z,0
2016-05-17T20:55:34.011Z,0
2016-05-17T20:56:34.155Z,0
2016-05-17T20:57:34.127Z,0
2016-05-17T20:58:34.098Z,0
2016-05-17T20:59:33.929Z,0
2016-05-17T21:00:33.900Z,0
2016-05-17T21:01:34.044Z,0
2016-05-17T21:02:34.016Z,0
2016-05-17T21:03:33.846Z,0
2016-05-17T21:04:33.989Z,0
2016-05-17T21:05:33.633Z,0
2016-05-17T21:06:33.933Z,0
2016-05-17T21:07:33.607Z,0
2016-05-17T21:08:33.735Z,0
2016-05-17T21:09:33.565Z,0
2016-05-17T21:10:33.850Z,0
2016-05-17T21:11:33.835Z,0
2016-05-17T21:12:33.651Z,0
2016-05-17T21:13:33.811Z,0
2016-05-17T21:14:33.766Z,0
2016-05-17T21:15:33.754Z,0
2016-05-17T21:16:33.554Z,0
2016-05-17T21:17:33.696Z,0
2016-05-17T21:18:33.699Z,0
2016-05-17T21:19:33.514Z,0
2016-05-17T21:20:33.485Z,0
2016-05-17T21:21:33.613Z,0
2016-05-17T21:22:33.803Z,0
2016-05-17T21:23:33.556Z,0
2016-05-17T21:24:33.542Z,0
2016-05-17T21:25:33.531Z,0
2016-05-17T21:26:33.345Z,0
2016-05-17T21:27:33.489Z,0
2016-05-17T21:28:33.461Z,0
2016-05-17T21:29:33.447Z,0
2016-05-17T21:30:33.419Z,0
2016-05-17T21:31:33.405Z,0
2016-05-17T21:32:33.393Z,0
2016-05-17T21:33:33.192Z,0
2016-05-17T21:34:33.320Z,0
2016-05-17T21:35:33.166Z,0
2016-05-17T21:36:33.153Z,0
2016-05-17T21:37:33.062Z,0
2016-05-17T21:38:33.253Z,0
2016-05-17T21:39:33.068Z,0
2016-05-17T21:40:33.196Z,0
2016-05-17T21:41:35.323Z,0
2016-05-17T21:42:33.154Z,0
2016-05-17T21:43:33.126Z,0
2016-05-17T21:44:33.112Z,0
2016-05-17T21:45:33.084Z,0
2016-05-17T21:46:32.962Z,0
2016-05-17T21:47:33.043Z,0
2016-05-17T21:48:33.014Z,0
2016-05-17T21:49:33.001Z,0
2016-05-17T21:50:32.972Z,4
2016-05-17T21:51:32.960Z,4
2016-05-17T21:52:32.962Z,4
2016-05-17T21:53:32.902Z,4
2016-05-17T21:54:32.890Z,0
2016-05-17T21:55:32.908Z,0
2016-05-17T21:56:32.691Z,0
2016-05-17T21:57:32.663Z,0
2016-05-17T21:58:32.807Z,0
2016-05-17T21:59:32.762Z,0
2016-05-17T22:00:32.764Z,0
2016-05-17T22:01:32.721Z,0
2016-05-17T22:02:32.723Z,0
2016-05-17T22:03:32.680Z,0
2016-05-17T22:04:32.697Z,4
2016-05-17T22:05:32.639Z,4
2016-05-17T22:06:32.609Z,4
2016-05-17T22:07:32.925Z,4
2016-05-17T22:08:32.427Z,0
2016-05-17T22:09:32.242Z,0
2016-05-17T22:10:32.542Z,0
2016-05-17T22:11:32.513Z,0
2016-05-17T22:12:32.500Z,0
2016-05-17T22:13:32.315Z,0
2016-05-17T22:14:33.818Z,0
2016-05-17T22:15:32.430Z,0
2016-05-17T22:16:32.418Z,0
2016-05-17T22:17:32.388Z,0
2016-05-17T22:18:32.204Z,0
2016-05-17T22:19:32.332Z,0
2016-05-17T22:20:32.318Z,0
2016-05-17T22:21:32.290Z,0
2016-05-17T22:22:32.121Z,0
2016-05-17T22:23:32.248Z,0
2016-05-17T22:24:32.221Z,0
2016-05-17T22:25:32.051Z,0
2016-05-17T22:26:32.179Z,0
2016-05-17T22:27:32.151Z,0
2016-05-17T22:28:32.137Z,0
2016-05-17T22:29:32.125Z,0
2016-05-17T22:30:32.081Z,0
2016-05-17T22:31:31.911Z,0
2016-05-17T22:32:31.883Z,0
2016-05-17T22:33:32.026Z,0
2016-05-17T22:34:31.872Z,0
2016-05-17T22:35:31.969Z,0
2016-05-17T22:36:31.956Z,0
2016-05-17T22:37:31.849Z,0
2016-05-17T22:38:43.320Z,0
2016-05-17T22:39:31.730Z,0
2016-05-17T22:40:31.872Z,0
2016-05-17T22:41:31.688Z,0
2016-05-17T22:42:31.815Z,0
2016-05-17T22:43:31.631Z,0
2016-05-17T22:44:31.774Z,0
2016-05-17T22:45:31.760Z,0
2016-05-17T22:46:31.749Z,0
2016-05-17T22:47:31.704Z,0
2016-05-17T22:48:31.691Z,0
2016-05-17T22:49:31.506Z,0
2016-05-17T22:50:31.338Z,0
2016-05-17T22:51:31.605Z,0
2016-05-17T22:52:31.437Z,0
2016-05-17T22:53:31.579Z,0
2016-05-17T22:54:31.566Z,0
2016-05-17T22:55:31.538Z,0
2016-05-17T22:56:31.509Z,0
2016-05-17T22:57:31.496Z,0
2016-05-17T22:58:31.311Z,0
2016-05-17T22:59:31.456Z,0
2016-05-17T23:00:31.270Z,0
2016-05-17T23:01:31.241Z,0
2016-05-17T23:02:31.369Z,0
2016-05-17T23:03:31.185Z,0
2016-05-17T23:04:31.328Z,0
2016-05-17T23:05:31.158Z,0
2016-05-17T23:06:31.286Z,0
2016-05-17T23:07:31.272Z,0
2016-05-17T23:08:31.120Z,0
2016-05-17T23:09:31.216Z,0
2016-05-17T23:10:31.219Z,0
2016-05-17T23:11:31.159Z,0
2016-05-17T23:12:31.147Z,0
2016-05-17T23:13:31.118Z,0
2016-05-17T23:14:30.963Z,0
2016-05-17T23:15:31.077Z,0
2016-05-17T23:16:30.907Z,0
2016-05-17T23:17:31.050Z,0
2016-05-17T23:18:30.849Z,0
2016-05-17T23:19:30.993Z,0
2016-05-17T23:20:30.949Z,0
2016-05-17T23:21:30.952Z,0
2016-05-17T23:22:30.655Z,0
2016-05-17T23:23:30.842Z,0
2016-05-17T23:24:30.874Z,0
2016-05-17T23:25:30.717Z,0
2016-05-17T23:26:30.905Z,0
2016-05-17T23:27:31.049Z,0
2016-05-17T23:28:30.879Z,0
2016-05-17T23:29:31.039Z,0
2016-05-17T23:30:30.885Z,0
2016-05-17T23:31:31.012Z,0
2016-05-17T23:32:31.006Z,0
2016-05-17T23:33:30.670Z,0
2016-05-17T23:34:30.975Z,0
2016-05-17T23:35:30.953Z,0
2016-05-17T23:36:30.929Z,0
2016-05-17T23:37:31.138Z,0
2016-05-17T23:38:30.736Z,0
2016-05-17T23:39:30.882Z,0
2016-05-17T23:40:30.699Z,0
2016-05-17T23:41:30.845Z,0
2016-05-17T23:42:30.802Z,0
2016-05-17T23:43:30.805Z,0
2016-05-17T23:44:30.762Z,0
2016-05-17T23:45:30.750Z,0
2016-05-17T23:46:30.566Z,0
2016-05-17T23:47:30.396Z,0
2016-05-17T23:48:30.695Z,0
2016-05-17T23:49:30.652Z,0
2016-05-17T23:50:30.468Z,0
2016-05-17T23:51:30.610Z,0
2016-05-17T23:52:30.628Z,0
2016-05-17T23:53:30.554Z,0
2016-05-17T23:54:30.384Z,0
2016-05-17T23:55:30.511Z,0
2016-05-17T23:56:30.342Z,0
2016-05-17T23:57:30.470Z,0
2016-05-17T23:58:30.458Z,0
2016-05-17T23:59:30.428Z,0
